Terminal Aerodrome Forecast
Issued by NWS Burlington, VT

Home | Current Version | Previous Version | Text Only | Print | Product List | Glossary On
Versions: 1 2 3 4 5 6 7 8 9 10 11 12 13
052
FTUS41 KBTV 201726
TAFBTV
TAF
KBTV 201726Z 2018/2118 23004KT P6SM VCSH SCT040
     FM202200 26004KT P6SM FEW120
     FM210500 16004KT P6SM FEW200
     FM211300 22005KT P6SM FEW080=

USA.gov is the U.S. government's official web portal to all federal, state and local government web resources and services.